createdAt,value
2019-05-03T00:03:35.995Z,1.90
2019-05-03T00:08:44.973Z,1.84
2019-05-03T00:13:53.947Z,1.98
2019-05-03T00:19:03.379Z,2.53
2019-05-03T00:24:11.891Z,2.59
2019-05-03T00:29:21.871Z,1.85
2019-05-03T00:34:28.439Z,2.11
2019-05-03T00:39:37.414Z,2.06
2019-05-03T00:44:46.390Z,1.88
2019-05-03T00:49:55.359Z,2.02
2019-05-03T00:55:15.725Z,1.88
2019-05-03T01:00:12.872Z,1.83
2019-05-03T01:05:22.688Z,1.90
2019-05-03T01:10:30.455Z,2.04
2019-05-03T01:15:39.420Z,1.99
2019-05-03T01:20:48.509Z,1.95
2019-05-03T01:25:57.497Z,1.85
2019-05-03T01:31:06.463Z,1.62
2019-05-03T01:36:15.419Z,1.56
2019-05-03T01:41:24.407Z,2.05
2019-05-03T01:46:33.378Z,1.72
2019-05-03T01:51:42.403Z,1.54
2019-05-03T01:56:58.803Z,1.77
2019-05-03T02:01:59.965Z,1.85
2019-05-03T02:07:08.931Z,1.56
2019-05-03T02:12:17.929Z,1.55
2019-05-03T02:17:26.880Z,1.70
2019-05-03T02:22:35.887Z,1.97
2019-05-03T02:27:44.855Z,1.63
2019-05-03T02:32:54.039Z,1.75
2019-05-03T02:38:03.715Z,1.69
2019-05-03T02:43:11.594Z,1.61
2019-05-03T02:48:20.577Z,1.73
2019-05-03T02:53:29.571Z,1.57
2019-05-03T02:58:38.540Z,1.76
2019-05-03T03:03:47.518Z,2.06
2019-05-03T03:08:56.512Z,1.74
2019-05-03T03:14:05.905Z,1.81
2019-05-03T03:19:15.903Z,2.01
2019-05-03T03:24:22.560Z,2.00
2019-05-03T03:29:31.603Z,2.20
2019-05-03T03:34:47.646Z,2.50
2019-05-03T03:39:49.149Z,2.07
2019-05-03T03:44:58.089Z,2.25
2019-05-03T03:50:07.225Z,2.10
2019-05-03T03:55:16.240Z,2.47
2019-05-03T04:00:25.786Z,2.24
2019-05-03T04:05:35.806Z,2.56
2019-05-03T04:10:42.180Z,2.22
2019-05-03T04:15:51.166Z,2.36
2019-05-03T04:21:00.182Z,2.01
2019-05-03T04:26:09.178Z,2.25
2019-05-03T04:31:18.163Z,2.79
2019-05-03T04:36:27.132Z,1.86
2019-05-03T04:41:36.153Z,2.23
2019-05-03T04:46:46.479Z,1.89
2019-05-03T04:51:56.053Z,1.70
2019-05-03T04:57:02.186Z,1.56
2019-05-03T05:02:11.161Z,1.54
2019-05-03T05:07:20.079Z,1.99
2019-05-03T05:12:29.043Z,1.88
2019-05-03T05:17:37.988Z,1.62
2019-05-03T05:22:46.944Z,1.81
2019-05-03T05:27:57.199Z,1.88
2019-05-03T05:33:05.385Z,1.57
2019-05-03T05:38:14.938Z,1.26
2019-05-03T05:43:21.394Z,1.41
2019-05-03T05:48:35.057Z,1.63
2019-05-03T05:53:36.747Z,1.29
2019-05-03T05:58:46.297Z,1.54
2019-05-03T06:03:55.065Z,1.24
2019-05-03T06:08:59.615Z,1.30
2019-05-03T06:13:59.874Z,1.10
2019-05-03T06:18:58.999Z,1.07
2019-05-03T06:24:09.733Z,1.20
2019-05-03T06:29:09.033Z,1.35
2019-05-03T06:34:17.939Z,1.40
2019-05-03T06:39:26.935Z,1.05
2019-05-03T06:44:35.891Z,0.80
2019-05-03T06:49:48.333Z,0.53
2019-05-03T06:54:55.371Z,0.84
2019-05-03T07:00:01.847Z,0.86
2019-05-03T07:05:10.766Z,0.52
2019-05-03T07:10:19.731Z,0.61
2019-05-03T07:15:28.666Z,0.70
2019-05-03T07:20:37.608Z,0.39
2019-05-03T07:25:46.546Z,0.60
2019-05-03T07:30:55.513Z,0.52
2019-05-03T07:36:05.285Z,0.58
2019-05-03T07:41:14.782Z,0.59
2019-05-03T07:46:21.350Z,0.41
2019-05-03T07:51:31.474Z,0.47
2019-05-03T07:56:36.482Z,0.35
2019-05-03T08:01:35.729Z,0.58
2019-05-03T08:06:44.610Z,0.75
2019-05-03T08:11:52.382Z,0.69
2019-05-03T08:17:01.318Z,0.52
2019-05-03T08:22:10.275Z,0.48
2019-05-03T08:27:19.211Z,0.52
2019-05-03T08:32:28.151Z,0.44
2019-05-03T08:37:37.106Z,0.63
2019-05-03T08:42:46.151Z,1.81
2019-05-03T08:47:55.403Z,0.80
2019-05-03T08:53:05.122Z,0.82
2019-05-03T08:58:12.610Z,0.86
2019-05-03T09:03:21.582Z,0.77
2019-05-03T09:08:30.523Z,0.73
2019-05-03T09:13:39.516Z,0.41
2019-05-03T09:18:48.471Z,0.22
2019-05-03T09:23:57.433Z,0.69
2019-05-03T09:29:06.362Z,0.67
2019-05-03T09:34:15.310Z,0.42
2019-05-03T09:39:24.623Z,0.90
2019-05-03T09:44:34.819Z,0.76
2019-05-03T09:49:41.378Z,0.59
2019-05-03T09:54:50.338Z,0.54
2019-05-03T10:00:00.088Z,0.35
2019-05-03T10:05:07.758Z,0.55
2019-05-03T10:10:16.683Z,0.84
2019-05-03T10:15:26.094Z,0.60
2019-05-03T10:20:34.844Z,0.49
2019-05-03T10:25:42.539Z,0.86
2019-05-03T10:30:51.485Z,0.72
2019-05-03T10:36:00.543Z,0.33
2019-05-03T10:41:09.479Z,0.69
2019-05-03T10:46:18.503Z,0.63
2019-05-03T10:51:27.450Z,0.55
2019-05-03T10:56:37.333Z,0.59
2019-05-03T11:01:45.298Z,0.63
2019-05-03T11:06:55.067Z,0.71
2019-05-03T11:12:01.893Z,0.69
2019-05-03T11:17:10.838Z,0.65
2019-05-03T11:22:19.764Z,0.79
2019-05-03T11:27:28.795Z,0.71
2019-05-03T11:32:40.258Z,0.68
2019-05-03T11:37:39.227Z,0.61
2019-05-03T11:42:48.162Z,0.67
2019-05-03T11:47:57.183Z,0.76
2019-05-03T11:53:06.136Z,0.72
2019-05-03T11:58:15.087Z,0.66
2019-05-03T12:03:25.054Z,0.84
2019-05-03T12:08:34.473Z,0.96
2019-05-03T12:13:40.934Z,0.78
2019-05-03T12:18:53.635Z,1.06
2019-05-03T12:23:59.023Z,0.98
2019-05-03T12:29:07.018Z,0.85
2019-05-03T12:34:16.050Z,0.77
2019-05-03T12:39:30.088Z,1.15
2019-05-03T12:44:35.398Z,0.92
2019-05-03T12:49:42.032Z,1.26
2019-05-03T12:54:50.954Z,1.10
2019-05-03T12:59:59.894Z,1.12
2019-05-03T13:05:08.846Z,1.12
2019-05-03T13:10:22.608Z,0.90
2019-05-03T13:15:26.311Z,1.33
2019-05-03T13:20:36.029Z,1.40
2019-05-03T13:25:44.766Z,1.21
2019-05-03T13:30:52.244Z,1.55
2019-05-03T13:36:01.188Z,0.98
2019-05-03T13:41:10.219Z,1.47
2019-05-03T13:46:19.162Z,1.15
2019-05-03T13:51:28.106Z,1.20
2019-05-03T13:56:37.071Z,1.17
2019-05-03T14:01:45.986Z,1.60
2019-05-03T14:06:55.238Z,1.44
2019-05-03T14:12:07.105Z,1.58
2019-05-03T14:17:12.334Z,1.46
2019-05-03T14:22:21.262Z,1.68
2019-05-03T14:27:30.266Z,1.55
2019-05-03T14:32:39.224Z,2.12
2019-05-03T14:37:48.154Z,2.05
2019-05-03T14:42:57.131Z,1.76
2019-05-03T14:48:06.381Z,2.05
2019-05-03T14:53:15.032Z,2.72
2019-05-03T14:58:25.894Z,2.38
2019-05-03T15:03:32.459Z,2.14
2019-05-03T15:08:41.389Z,2.31
2019-05-03T15:13:50.386Z,2.12
2019-05-03T15:18:59.312Z,2.35
2019-05-03T15:24:08.310Z,2.40
2019-05-03T15:29:17.242Z,2.45
2019-05-03T15:34:26.198Z,2.51
2019-05-03T15:39:35.126Z,2.18
2019-05-03T15:44:45.032Z,2.54
2019-05-03T15:49:52.583Z,1.98
2019-05-03T15:55:01.556Z,1.91
2019-05-03T16:00:10.474Z,1.97
2019-05-03T16:05:19.426Z,2.36
2019-05-03T16:10:28.370Z,1.88
2019-05-03T16:15:37.335Z,2.18
2019-05-03T16:20:46.270Z,2.00
2019-05-03T16:25:55.254Z,1.30
2019-05-03T16:31:05.119Z,1.67
2019-05-03T16:36:14.736Z,1.56
2019-05-03T16:41:21.428Z,1.50
2019-05-03T16:46:30.461Z,1.48
2019-05-03T16:51:36.512Z,1.67
2019-05-03T16:56:45.467Z,1.57
2019-05-03T17:01:55.198Z,1.61
2019-05-03T17:07:05.389Z,1.75
2019-05-03T17:12:12.320Z,1.45
2019-05-03T17:17:21.311Z,1.57
2019-05-03T17:22:30.236Z,1.69
2019-05-03T17:27:39.212Z,1.63
2019-05-03T17:32:48.129Z,0.99
2019-05-03T17:37:57.058Z,1.41
2019-05-03T17:43:05.998Z,1.13
2019-05-03T17:48:15.070Z,0.87
2019-05-03T17:53:25.360Z,1.26
2019-05-03T17:58:32.418Z,1.12
2019-05-03T18:03:41.370Z,1.29
2019-05-03T18:08:50.391Z,0.84
2019-05-03T18:13:59.476Z,0.92
2019-05-03T18:19:08.382Z,1.18
2019-05-03T18:24:17.349Z,1.05
2019-05-03T18:29:26.279Z,0.49
2019-05-03T18:34:35.320Z,0.90
2019-05-03T18:39:45.226Z,1.09
2019-05-03T18:44:52.741Z,1.38
2019-05-03T18:50:01.695Z,0.97
2019-05-03T18:55:10.610Z,0.64
2019-05-03T19:00:19.598Z,0.93
2019-05-03T19:05:28.551Z,0.94
2019-05-03T19:10:37.596Z,0.99
2019-05-03T19:15:46.522Z,1.20
2019-05-03T19:20:55.506Z,1.07
2019-05-03T19:26:05.516Z,0.86
2019-05-03T19:31:12.975Z,0.67
2019-05-03T19:36:21.894Z,1.04
2019-05-03T19:41:30.943Z,1.22
2019-05-03T19:46:39.875Z,0.90
2019-05-03T19:51:48.810Z,0.97
2019-05-03T19:56:57.735Z,0.70
2019-05-03T20:02:07.118Z,0.73
2019-05-03T20:07:16.110Z,0.80
2019-05-03T20:12:25.043Z,0.76
2019-05-03T20:17:34.576Z,0.96
2019-05-03T20:22:42.430Z,0.80
2019-05-03T20:27:51.378Z,1.15
2019-05-03T20:33:00.378Z,1.08
2019-05-03T20:38:09.338Z,1.02
2019-05-03T20:43:18.290Z,1.11
2019-05-03T20:48:27.282Z,1.11
2019-05-03T20:53:36.204Z,1.27
2019-05-03T20:58:45.263Z,1.22
2019-05-03T21:03:54.407Z,1.56
2019-05-03T21:09:04.683Z,0.74
2019-05-03T21:14:11.667Z,0.45
2019-05-03T21:19:24.703Z,0.68
2019-05-03T21:24:23.608Z,0.71
2019-05-03T21:29:29.934Z,0.78
2019-05-03T21:34:38.882Z,1.21
2019-05-03T21:39:47.814Z,0.70
2019-05-03T21:44:56.772Z,1.07
2019-05-03T21:50:05.710Z,0.94
2019-05-03T21:55:14.631Z,1.12
2019-05-03T22:00:23.582Z,0.91
2019-05-03T22:05:33.110Z,0.85
2019-05-03T22:10:41.044Z,0.96
2019-05-03T22:15:49.968Z,0.89
2019-05-03T22:20:58.921Z,0.63
2019-05-03T22:26:07.863Z,0.82
2019-05-03T22:31:16.810Z,0.71
2019-05-03T22:36:25.752Z,0.73
2019-05-03T22:41:34.843Z,1.02
2019-05-03T22:46:44.619Z,0.82
2019-05-03T22:51:52.165Z,0.77
2019-05-03T22:57:01.126Z,0.91
2019-05-03T23:02:10.186Z,0.88
2019-05-03T23:07:19.101Z,0.72
2019-05-03T23:12:28.049Z,0.96
2019-05-03T23:17:36.970Z,1.21
2019-05-03T23:22:45.914Z,0.71
2019-05-03T23:27:55.179Z,1.32
2019-05-03T23:33:03.844Z,1.52
2019-05-03T23:38:12.778Z,1.58
2019-05-03T23:43:21.718Z,1.80
2019-05-03T23:48:30.651Z,1.61
2019-05-03T23:53:39.598Z,1.38
2019-05-03T23:58:48.511Z,1.22
